Time;durP1;ratioP1;P1;durP2;ratioP2;P2;SDS_P1;SDS_P2;PMS_P1;PMS_P2;Temp;Humidity;BMP_temperature;BMP_pressure;BME280_temperature;BME280_humidity;BME280_pressure;Samples;Min_cycle;Max_cycle;Signal;HPM_P1;HPM_P2
2023/09/22 00:00:01;;;;;;;5.90;3.90;;;;;;;16.66;84.64;98054.23;273595;1270;209182;-86
2023/09/22 00:06:03;;;;;;;6.50;3.30;;;;;;;16.43;85.36;98053.73;272131;1269;22535;-86
2023/09/22 00:12:29;;;;;;;7.20;4.00;;;;;;;16.30;85.62;98045.81;271522;1268;22502;-85
2023/09/22 00:19:12;;;;;;;8.60;4.10;;;;;;;16.15;86.20;98043.84;273677;1269;22399;-86
2023/09/22 00:26:15;;;;;;;7.00;3.50;;;;;;;16.14;88.34;98041.42;273952;1275;22198;-86
2023/09/22 00:32:17;;;;;;;4.00;3.10;;;;;;;16.12;89.07;98037.77;273938;1269;22397;-86
2023/09/22 00:38:21;;;;;;;5.00;3.80;;;;;;;16.01;88.66;98039.73;272447;1268;22163;-86
2023/09/22 00:44:24;;;;;;;8.00;3.60;;;;;;;15.86;89.76;98036.15;273834;1270;22361;-86
2023/09/22 00:50:51;;;;;;;7.00;3.60;;;;;;;15.72;90.19;98030.34;273667;1270;22431;-86
2023/09/22 00:57:14;;;;;;;8.10;3.50;;;;;;;15.64;90.76;98020.53;273799;1270;22196;-86
2023/09/22 01:03:37;;;;;;;6.50;4.20;;;;;;;15.60;91.11;98014.72;273962;1270;23333;-86
2023/09/22 01:10:23;;;;;;;8.60;3.90;;;;;;;15.61;92.30;98003.41;273802;1260;23256;-86
2023/09/22 01:17:06;;;;;;;7.80;4.20;;;;;;;15.55;92.92;97997.89;273984;1270;22243;-85
2023/09/22 01:23:28;;;;;;;11.00;4.40;;;;;;;15.53;93.32;97990.23;273840;1270;22339;-86
2023/09/22 01:29:30;;;;;;;8.00;3.90;;;;;;;15.48;93.91;97981.52;273964;1273;22942;-86
2023/09/22 01:35:35;;;;;;;7.20;4.50;;;;;;;15.53;94.33;97975.63;273878;1255;22844;-86
2023/09/22 01:42:19;;;;;;;5.80;3.80;;;;;;;15.56;94.06;97972.17;273941;1270;22215;-85
2023/09/22 01:48:41;;;;;;;6.20;4.10;;;;;;;15.56;95.02;97961.79;273863;1269;22275;-86
2023/09/22 01:55:05;;;;;;;6.60;4.00;;;;;;;15.63;96.14;97963.11;274075;1275;23304;-85
2023/09/22 02:01:07;;;;;;;5.60;3.80;;;;;;;15.59;96.53;97967.36;274049;1261;22164;-85
2023/09/22 02:07:50;;;;;;;6.00;4.20;;;;;;;15.60;96.79;97961.05;273995;1273;22365;-86
2023/09/22 02:14:43;;;;;;;8.10;4.30;;;;;;;15.59;96.68;97959.48;274097;1275;23218;-86
2023/09/22 02:21:07;;;;;;;9.90;4.40;;;;;;;15.57;96.82;97957.27;273995;1275;22129;-86
2023/09/22 02:27:31;;;;;;;6.20;4.70;;;;;;;15.61;97.41;97953.53;274134;1272;22201;-86
2023/09/22 02:33:33;;;;;;;11.90;5.10;;;;;;;15.74;97.62;97933.80;274083;1267;22478;-86
2023/09/22 02:39:34;;;;;;;7.20;4.80;;;;;;;15.98;98.02;97921.88;273843;1268;22169;-86
2023/09/22 02:46:00;;;;;;;7.70;4.10;;;;;;;15.96;97.85;97922.86;274000;1269;22928;-86
2023/09/22 02:52:02;;;;;;;7.00;5.10;;;;;;;15.85;98.08;97924.91;273854;1273;22310;-85
2023/09/22 03:06:00;;;;;;;4.60;3.90;;;;;;;15.67;99.46;97933.59;273853;1269;22181;-86
2023/09/22 03:12:03;;;;;;;9.90;4.70;;;;;;;15.60;99.82;97926.20;273936;1270;22261;-86
2023/09/22 03:18:23;;;;;;;6.60;4.20;;;;;;;15.53;100.00;97923.16;273716;1269;23438;-86
2023/09/22 03:24:25;;;;;;;9.20;4.50;;;;;;;15.49;100.00;97927.19;273750;1269;22377;-86
2023/09/22 03:30:29;;;;;;;7.30;4.50;;;;;;;15.49;100.00;97935.08;271999;1269;22560;-87
2023/09/22 03:36:44;;;;;;;8.70;4.30;;;;;;;15.51;100.00;97938.73;271858;1269;22474;-86
2023/09/22 03:42:46;;;;;;;7.40;4.40;;;;;;;15.52;100.00;97950.29;272186;1269;22461;-86
2023/09/22 03:48:50;;;;;;;7.50;4.80;;;;;;;15.40;100.00;97948.60;272182;1269;22380;-86
2023/09/22 03:55:44;;;;;;;8.80;4.80;;;;;;;15.36;100.00;97960.10;273644;1269;22210;-86
2023/09/22 04:01:46;;;;;;;8.40;5.00;;;;;;;15.34;100.00;97961.09;273443;1269;23645;-86
2023/09/22 04:07:54;;;;;;;11.40;5.70;;;;;;;15.32;100.00;97964.38;273740;1269;22381;-86
2023/09/22 04:14:21;;;;;;;11.50;6.20;;;;;;;15.37;100.00;97965.30;272769;1256;22379;-85
2023/09/22 04:20:50;;;;;;;12.30;5.70;;;;;;;15.38;100.00;97972.99;273900;1260;22934;-85
2023/09/22 04:27:14;;;;;;;11.00;6.10;;;;;;;15.42;100.00;97974.42;274022;1269;22199;-86
2023/09/22 04:33:36;;;;;;;12.40;6.40;;;;;;;15.36;100.00;97965.77;274069;1270;23027;-86
2023/09/22 04:39:38;;;;;;;10.40;6.30;;;;;;;15.35;100.00;97961.48;272224;1269;23752;-85
2023/09/22 04:45:41;;;;;;;15.20;8.50;;;;;;;15.33;100.00;97963.65;271072;1269;22527;-84
2023/09/22 04:51:43;;;;;;;14.50;8.40;;;;;;;15.30;100.00;97960.89;272029;1269;23808;-85
2023/09/22 04:58:27;;;;;;;14.70;8.70;;;;;;;15.28;100.00;97961.59;271998;1269;22596;-85
2023/09/22 05:05:10;;;;;;;13.40;8.80;;;;;;;15.32;100.00;97950.53;273897;1269;22211;-84
2023/09/22 05:11:48;;;;;;;17.10;8.90;;;;;;;15.43;100.00;97954.67;273955;1268;22343;-86
2023/09/22 05:18:35;;;;;;;12.40;8.10;;;;;;;15.59;100.00;97960.66;274050;1270;22230;-85
2023/09/22 05:32:43;;;;;;;14.90;7.80;;;;;;;15.98;100.00;97966.04;273759;1268;22375;-85
2023/09/22 05:38:45;;;;;;;11.70;6.70;;;;;;;16.27;100.00;97976.69;273738;1268;22204;-84
2023/09/22 05:45:28;;;;;;;14.20;5.80;;;;;;;16.52;100.00;97968.50;273711;1262;22243;-85
2023/09/22 05:51:35;;;;;;;15.80;7.00;;;;;;;16.78;100.00;97964.41;273147;1269;22209;-85
2023/09/22 05:58:16;;;;;;;16.90;7.20;;;;;;;17.04;100.00;97943.70;273759;1263;23196;-85
2023/09/22 06:05:19;;;;;;;8.30;4.50;;;;;;;17.65;100.00;97955.64;271235;1269;22569;-85
2023/09/22 06:11:50;;;;;;;9.30;5.60;;;;;;;18.09;100.00;97967.80;273764;1270;22216;-85
2023/09/22 06:18:33;;;;;;;11.40;5.40;;;;;;;18.36;100.00;97963.77;273924;1269;22339;-85
2023/09/22 06:25:12;;;;;;;13.60;5.10;;;;;;;18.49;100.00;97975.02;273794;1269;22356;-85
2023/09/22 06:31:52;;;;;;;8.80;5.50;;;;;;;18.56;100.00;97985.63;273060;1264;22587;-85
2023/09/22 06:37:54;;;;;;;13.20;5.70;;;;;;;18.56;100.00;97997.35;272615;1268;22387;-87
2023/09/22 06:43:59;;;;;;;10.00;5.10;;;;;;;18.63;100.00;98010.86;273604;1268;23204;-86
2023/09/22 06:50:05;;;;;;;8.00;6.00;;;;;;;18.73;100.00;98013.52;273966;1256;22773;-85
2023/09/22 06:56:21;;;;;;;14.10;6.00;;;;;;;18.83;100.00;98016.39;272101;1265;23346;-86
2023/09/22 07:03:04;;;;;;;10.30;5.70;;;;;;;19.00;100.00;98020.18;272832;1269;22199;-85
2023/09/22 07:09:21;;;;;;;16.40;6.60;;;;;;;19.24;100.00;98018.13;273907;1269;22890;-85
2023/09/22 07:16:06;;;;;;;10.80;6.00;;;;;;;19.41;100.00;98014.62;273736;1269;23464;-85
2023/09/22 07:22:13;;;;;;;8.00;5.30;;;;;;;19.79;100.00;98001.64;273900;1276;22240;-87
2023/09/22 07:29:18;;;;;;;11.80;5.40;;;;;;;20.27;100.00;97996.94;273603;1270;22253;-85
2023/09/22 07:35:24;;;;;;;7.40;2.90;;;;;;;20.70;100.00;97997.07;273583;1269;22209;-85
2023/09/22 07:41:53;;;;;;;8.40;2.60;;;;;;;21.34;97.84;97998.36;272002;1269;22209;-85
2023/09/22 07:47:55;;;;;;;6.20;3.10;;;;;;;21.81;96.33;97999.82;271062;1269;22389;-84
2023/09/22 07:54:20;;;;;;;8.90;3.10;;;;;;;22.24;92.56;97996.89;273664;1272;22240;-85
2023/09/22 08:00:26;;;;;;;6.90;3.00;;;;;;;22.79;88.26;97999.95;272092;1267;23819;-85
2023/09/22 08:06:31;;;;;;;8.40;3.60;;;;;;;23.21;84.38;97996.33;269939;1269;22637;-86
2023/09/22 08:12:47;;;;;;;8.00;3.40;;;;;;;23.54;79.58;97999.86;271101;1269;22548;-85
2023/09/22 08:19:12;;;;;;;7.60;3.10;;;;;;;23.81;76.80;97999.34;271600;1264;23009;-87
2023/09/22 08:25:14;;;;;;;8.20;3.50;;;;;;;24.00;77.05;97998.06;273611;1270;22218;-86
2023/09/22 08:32:14;;;;;;;10.40;3.00;;;;;;;24.19;75.74;98001.63;273812;1269;22180;-88
2023/09/22 08:38:19;;;;;;;6.50;2.90;;;;;;;24.52;75.47;98004.51;273004;1269;22562;-85
2023/09/22 08:44:21;;;;;;;4.70;2.20;;;;;;;24.83;75.21;98006.39;272399;1269;22540;-87
2023/09/22 08:50:45;;;;;;;5.00;1.90;;;;;;;24.95;73.04;98009.41;272089;1272;23314;-86
2023/09/22 08:57:33;;;;;;;5.40;1.50;;;;;;;24.93;72.27;98007.30;271795;1272;22221;-86
2023/09/22 09:05:09;;;;;;;4.60;1.70;;;;;;;24.98;71.66;98010.11;272833;1270;22592;-86
2023/09/22 09:11:18;;;;;;;5.10;1.70;;;;;;;25.44;70.78;98013.52;270695;1267;22423;-86
2023/09/22 09:17:22;;;;;;;9.70;1.60;;;;;;;26.24;70.73;98019.85;271215;1262;22432;-87
2023/09/22 09:23:25;;;;;;;5.70;2.00;;;;;;;27.10;69.55;98022.23;270934;1270;22529;-87
2023/09/22 09:29:31;;;;;;;4.50;1.70;;;;;;;27.61;67.12;98019.27;271478;1270;23092;-88
2023/09/22 09:36:20;;;;;;;4.00;1.70;;;;;;;28.10;64.25;98016.42;272256;1271;22439;-88
2023/09/22 09:42:45;;;;;;;4.60;1.50;;;;;;;28.69;62.62;98016.92;273794;1271;23442;-87
2023/09/22 09:49:32;;;;;;;3.10;1.40;;;;;;;29.08;59.88;98018.36;273768;1269;22184;-88
2023/09/22 09:56:20;;;;;;;6.50;1.50;;;;;;;29.42;58.60;98016.15;273781;1269;22201;-87
2023/09/22 10:02:24;;;;;;;4.50;1.50;;;;;;;30.06;57.89;98014.14;273760;1269;22929;-87
2023/09/22 10:09:09;;;;;;;5.90;1.30;;;;;;;30.64;56.55;98009.70;273842;1272;22185;-86
2023/09/22 10:16:29;;;;;;;3.70;1.60;;;;;;;31.29;56.15;98009.55;272176;1277;23254;-88
2023/09/22 10:23:11;;;;;;;5.30;1.20;;;;;;;31.56;54.49;98000.75;273613;1269;22245;-87
2023/09/22 10:29:32;;;;;;;3.60;1.30;;;;;;;31.30;53.99;98000.46;273514;1269;23195;-88
2023/09/22 10:35:39;;;;;;;5.90;1.40;;;;;;;31.06;53.24;97998.65;271812;1269;22630;-87
2023/09/22 10:42:03;;;;;;;5.00;1.40;;;;;;;31.39;52.54;98003.55;271734;1266;22516;-87
2023/09/22 10:48:05;;;;;;;6.70;1.70;;;;;;;31.50;52.09;98002.20;272257;1269;23122;-88
2023/09/22 10:54:06;;;;;;;4.30;1.50;;;;;;;31.52;51.51;98003.09;273401;1262;22986;-87
2023/09/22 11:00:13;;;;;;;3.90;1.00;;;;;;;31.24;50.74;98000.33;273510;1269;22358;-87
2023/09/22 11:06:15;;;;;;;5.00;1.30;;;;;;;30.83;49.84;98000.52;273550;1269;22345;-89
2023/09/22 11:12:17;;;;;;;7.80;1.60;;;;;;;30.40;48.55;98005.49;273326;1269;22320;-87
2023/09/22 11:18:20;;;;;;;2.80;1.10;;;;;;;29.80;48.00;98011.52;273496;1269;22384;-88
2023/09/22 11:24:22;;;;;;;3.90;1.50;;;;;;;29.26;47.74;98009.98;273594;1269;22420;-87
2023/09/22 11:30:28;;;;;;;3.20;1.60;;;;;;;28.90;47.80;98011.50;273600;1269;23702;-87
2023/09/22 11:36:47;;;;;;;6.70;1.80;;;;;;;28.63;48.50;98011.23;273461;1274;22137;-88
2023/09/22 11:42:49;;;;;;;2.10;1.00;;;;;;;28.56;49.65;98011.06;273285;1269;22226;-87
2023/09/22 11:49:02;;;;;;;5.10;1.00;;;;;;;28.36;49.33;98003.86;273769;1269;22097;-88
2023/09/22 11:55:04;;;;;;;3.00;1.10;;;;;;;27.99;48.95;98006.27;273833;1269;22991;-87
2023/09/22 12:01:09;;;;;;;6.20;1.70;;;;;;;27.64;49.38;98013.28;270190;1265;144379;-85
2023/09/22 12:07:12;;;;;;;6.20;1.40;;;;;;;27.38;49.70;98013.86;272537;1269;22502;-86
2023/09/22 12:13:31;;;;;;;3.70;1.50;;;;;;;27.17;50.53;98021.85;272324;1269;22312;-87
2023/09/22 12:19:33;;;;;;;5.40;1.20;;;;;;;27.03;50.96;98031.27;273382;1269;22443;-87
2023/09/22 12:25:35;;;;;;;3.80;1.40;;;;;;;26.77;51.53;98047.75;271860;1269;25354;-87
2023/09/22 12:31:37;;;;;;;2.40;1.00;;;;;;;26.47;51.97;98057.02;270506;1256;22668;-88
2023/09/22 12:38:25;;;;;;;8.30;1.80;;;;;;;26.22;51.79;98061.27;271231;1269;22612;-85
2023/09/22 12:44:28;;;;;;;7.20;1.20;;;;;;;25.90;52.60;98060.95;270510;1269;22545;-85
2023/09/22 12:51:15;;;;;;;3.80;1.70;;;;;;;25.69;53.20;98061.83;272156;1269;22183;-87
2023/09/22 12:57:29;;;;;;;6.60;1.60;;;;;;;25.54;53.67;98054.73;274026;1276;22337;-86
2023/09/22 13:03:34;;;;;;;3.70;1.40;;;;;;;25.54;54.28;98048.31;273864;1269;22532;-86
2023/09/22 13:09:42;;;;;;;4.30;1.80;;;;;;;25.66;54.79;98046.46;273796;1269;22180;-86
2023/09/22 13:15:45;;;;;;;4.00;1.90;;;;;;;25.77;55.39;98048.93;271186;1263;23947;-87
2023/09/22 13:21:49;;;;;;;3.40;2.00;;;;;;;25.87;55.78;98047.46;270501;1269;22633;-84
2023/09/22 13:28:12;;;;;;;8.00;1.90;;;;;;;25.87;55.28;98050.48;272298;1269;22426;-87
2023/09/22 13:34:16;;;;;;;4.20;1.70;;;;;;;25.77;55.24;98048.58;271878;1269;22238;-85
2023/09/22 13:40:21;;;;;;;4.00;2.00;;;;;;;25.64;55.30;98060.96;272475;1269;22516;-85
2023/09/22 13:46:23;;;;;;;6.50;2.00;;;;;;;25.48;55.69;98070.77;270990;1266;22407;-88
2023/09/22 13:52:25;;;;;;;4.60;2.10;;;;;;;25.41;56.12;98073.97;272392;1269;22141;-86
2023/09/22 13:58:28;;;;;;;5.70;2.30;;;;;;;25.44;56.53;98070.27;272754;1266;23536;-86
2023/09/22 14:04:30;;;;;;;5.10;2.10;;;;;;;25.46;56.94;98068.16;272009;1269;22571;-87
2023/09/22 14:10:32;;;;;;;5.90;2.10;;;;;;;25.43;57.65;98067.84;271687;1269;23046;-88
2023/09/22 14:16:34;;;;;;;5.70;1.60;;;;;;;25.37;57.89;98068.08;271592;1269;22409;-87
2023/09/22 14:23:01;;;;;;;3.30;1.70;;;;;;;25.38;57.78;98065.69;272156;1269;22598;-86
2023/09/22 14:29:04;;;;;;;4.40;1.90;;;;;;;25.34;57.83;98067.78;270994;1269;22575;-85
2023/09/22 14:35:26;;;;;;;9.00;2.30;;;;;;;25.19;58.07;98068.33;272371;1266;22468;-87
2023/09/22 14:41:29;;;;;;;7.00;2.00;;;;;;;25.01;57.91;98066.73;270998;1266;23172;-87
2023/09/22 14:47:32;;;;;;;8.20;2.30;;;;;;;24.91;58.14;98068.00;271026;1269;24048;-87
2023/09/22 14:53:35;;;;;;;5.70;2.10;;;;;;;24.90;58.10;98064.52;271808;1269;25248;-86
2023/09/22 14:59:47;;;;;;;6.40;2.10;;;;;;;24.83;58.54;98064.70;271726;1270;22550;-85
2023/09/22 15:06:03;;;;;;;5.20;2.10;;;;;;;24.69;58.89;98069.84;271510;1269;22188;-87
2023/09/22 15:12:06;;;;;;;6.00;2.30;;;;;;;24.54;59.54;98064.85;271738;1269;22544;-87
2023/09/22 15:18:10;;;;;;;10.90;2.40;;;;;;;24.41;59.86;98068.20;271407;1269;22528;-86
2023/09/22 15:24:14;;;;;;;8.10;2.20;;;;;;;24.25;60.43;98062.10;271246;1269;22566;-86
2023/09/22 15:30:16;;;;;;;10.30;3.20;;;;;;;24.10;60.95;98063.77;271477;1265;22394;-87
2023/09/22 15:36:39;;;;;;;6.70;2.20;;;;;;;23.95;61.51;98066.54;272043;1269;23000;-86
2023/09/22 15:43:01;;;;;;;5.40;2.40;;;;;;;23.83;61.96;98066.96;274247;1269;22831;-86
2023/09/22 15:49:04;;;;;;;7.60;2.90;;;;;;;23.74;62.53;98080.84;274175;1269;22518;-86
2023/09/22 15:55:06;;;;;;;10.70;3.00;;;;;;;23.65;62.83;98083.34;273604;1270;22414;-86
2023/09/22 16:01:12;;;;;;;6.60;2.80;;;;;;;23.56;63.29;98087.98;274139;1276;23027;-87
2023/09/22 16:08:16;;;;;;;7.00;2.80;;;;;;;23.47;63.80;98095.90;272049;1272;22202;-87
2023/09/22 16:14:18;;;;;;;5.10;2.60;;;;;;;23.33;64.38;98110.58;273924;1270;22583;-87
2023/09/22 16:20:41;;;;;;;5.90;2.90;;;;;;;23.21;64.86;98114.39;271678;1269;22777;-86
2023/09/22 16:27:24;;;;;;;7.30;2.40;;;;;;;23.09;65.75;98111.13;274042;1269;22202;-86
2023/09/22 16:33:34;;;;;;;11.60;3.20;;;;;;;22.94;65.92;98114.14;273899;1269;22551;-85
2023/09/22 16:39:44;;;;;;;7.60;2.80;;;;;;;22.85;66.20;98117.78;273157;1269;22378;-87
2023/09/22 16:46:08;;;;;;;8.80;2.80;;;;;;;22.83;66.65;98121.73;273047;1270;22567;-86
2023/09/22 16:52:47;;;;;;;7.80;3.00;;;;;;;22.79;66.88;98118.82;272163;1269;23862;-87
2023/09/22 16:58:51;;;;;;;8.20;2.90;;;;;;;22.72;67.60;98117.50;273382;1269;22611;-87
2023/09/22 17:04:54;;;;;;;9.00;3.50;;;;;;;22.60;68.17;98124.86;271968;1269;22509;-87
2023/09/22 17:10:56;;;;;;;12.20;6.90;;;;;;;22.40;69.27;98120.66;270617;1269;25284;-85
2023/09/22 17:17:43;;;;;;;13.80;5.50;;;;;;;22.18;71.00;98122.00;270393;1269;22618;-87
2023/09/22 17:24:14;;;;;;;14.60;4.50;;;;;;;21.98;72.59;98126.89;269700;1269;25369;-88
2023/09/22 17:30:17;;;;;;;12.50;4.30;;;;;;;21.76;73.17;98129.77;270492;1262;22559;-87
2023/09/22 17:36:22;;;;;;;12.10;4.00;;;;;;;21.62;73.72;98139.08;263302;1269;10003453;-87
2023/09/22 17:42:50;;;;;;;10.40;4.50;;;;;;;21.42;74.08;98142.15;273225;1269;22385;-88
2023/09/22 17:49:36;;;;;;;14.00;6.50;;;;;;;21.28;74.26;98152.36;273730;1276;22271;-88
2023/09/22 17:56:28;;;;;;;11.30;5.50;;;;;;;21.35;74.22;98144.77;273728;1276;23175;-87
2023/09/22 18:03:11;;;;;;;13.90;5.90;;;;;;;21.37;74.73;98135.16;273664;1276;22170;-87
2023/09/22 18:09:55;;;;;;;10.60;4.50;;;;;;;21.34;75.12;98131.88;273521;1276;22180;-87
2023/09/22 18:16:41;;;;;;;10.70;4.90;;;;;;;21.30;75.21;98132.19;273497;1270;22285;-86
2023/09/22 18:23:14;;;;;;;8.70;4.60;;;;;;;21.27;75.55;98136.55;273574;1270;22388;-86
2023/09/22 18:29:17;;;;;;;11.30;5.10;;;;;;;21.23;75.74;98144.14;273436;1269;22273;-88
2023/09/22 18:35:40;;;;;;;10.00;5.70;;;;;;;21.22;77.16;98144.52;273743;1276;23207;-87
2023/09/22 18:41:43;;;;;;;10.40;4.30;;;;;;;21.07;78.79;98142.09;273735;1270;22108;-87
2023/09/22 18:48:11;;;;;;;11.00;5.60;;;;;;;20.90;79.08;98136.61;273762;1270;22204;-88
2023/09/22 18:54:32;;;;;;;;;;;;;;;20.86;78.50;98135.83;273453;1270;22417;-85
2023/09/22 19:01:19;;;;;;;11.20;6.40;;;;;;;20.90;78.49;98133.57;273532;1269;23229;-87
2023/09/22 19:08:27;;;;;;;10.20;6.60;;;;;;;21.05;78.55;98130.06;273663;1270;22932;-86
2023/09/22 19:15:19;;;;;;;13.00;4.90;;;;;;;21.26;78.71;98135.34;273747;1276;23212;-86
2023/09/22 19:22:07;;;;;;;11.10;4.90;;;;;;;21.45;78.57;98143.11;273699;1276;23436;-87
2023/09/22 19:28:53;;;;;;;11.90;5.20;;;;;;;21.57;78.25;98148.62;271255;1269;22527;-87
2023/09/22 19:35:20;;;;;;;11.40;5.40;;;;;;;21.57;78.16;98153.60;272001;1269;22529;-86
2023/09/22 19:41:23;;;;;;;10.90;4.70;;;;;;;21.56;78.06;98147.05;272390;1269;22207;-85
2023/09/22 19:47:50;;;;;;;11.40;5.40;;;;;;;21.71;77.60;98137.23;271183;1269;22704;-86
2023/09/22 19:54:18;;;;;;;;;;;;;;;21.80;77.36;98135.23;270869;1269;23099;-87
2023/09/22 20:00:48;;;;;;;9.80;4.90;;;;;;;21.77;77.43;98133.05;272479;1263;22561;-87
2023/09/22 20:07:10;;;;;;;12.80;5.50;;;;;;;21.63;78.00;98133.19;272765;1269;23003;-85
2023/09/22 20:13:39;;;;;;;11.90;5.90;;;;;;;21.29;78.43;98140.50;273835;1272;22210;-87
2023/09/22 20:20:05;;;;;;;12.30;6.70;;;;;;;20.85;79.18;98137.21;274067;1269;22818;-86
2023/09/22 20:26:27;;;;;;;16.70;6.80;;;;;;;20.59;80.58;98140.29;273767;1269;22246;-87
2023/09/22 20:40:57;;;;;;;12.50;7.40;;;;;;;20.04;82.71;98146.34;273649;1269;22465;-86
2023/09/22 20:47:41;;;;;;;15.60;6.90;;;;;;;19.81;83.57;98147.64;271319;1269;22571;-86
2023/09/22 20:53:58;;;;;;;13.10;7.60;;;;;;;19.67;84.37;98139.05;270286;1269;22567;-86
2023/09/22 21:00:00;;;;;;;16.90;7.90;;;;;;;19.57;85.13;98131.70;269764;1269;22533;-86
2023/09/22 21:06:22;;;;;;;12.40;7.20;;;;;;;19.46;86.02;98139.95;269709;1269;22720;-86
2023/09/22 21:12:27;;;;;;;12.20;7.80;;;;;;;19.35;86.89;98138.94;269679;1259;23116;-86
2023/09/22 21:18:30;;;;;;;11.50;7.20;;;;;;;19.12;87.89;98142.33;270730;1269;22567;-87
2023/09/22 21:25:12;;;;;;;12.70;8.50;;;;;;;18.93;88.83;98145.48;270705;1269;24292;-86
2023/09/22 21:31:58;;;;;;;16.80;8.60;;;;;;;18.85;89.89;98141.34;270202;1269;22543;-86
2023/09/22 21:38:00;;;;;;;14.20;7.90;;;;;;;18.78;90.77;98146.48;269862;1262;22546;-87
2023/09/22 21:44:01;;;;;;;15.80;8.30;;;;;;;18.73;91.34;98143.89;270280;1269;22543;-86
2023/09/22 21:50:05;;;;;;;16.20;9.80;;;;;;;18.73;92.52;98149.91;270459;1269;23385;-87
2023/09/22 21:56:07;;;;;;;14.80;8.70;;;;;;;18.73;92.60;98155.91;271941;1263;22545;-87
2023/09/22 22:02:45;;;;;;;15.30;9.30;;;;;;;18.71;92.39;98161.54;273360;1266;22204;-87
2023/09/22 22:09:15;;;;;;;15.90;8.90;;;;;;;18.64;92.90;98161.62;273727;1276;22729;-86
2023/09/22 22:15:18;;;;;;;18.30;9.30;;;;;;;18.57;92.62;98161.45;273746;1269;22930;-86
2023/09/22 22:21:41;;;;;;;13.40;8.10;;;;;;;18.60;93.17;98151.53;273773;1276;22376;-87
2023/09/22 22:28:15;;;;;;;12.80;6.70;;;;;;;19.01;93.68;98148.35;272720;1273;22197;-88
2023/09/22 22:34:40;;;;;;;14.70;7.10;;;;;;;19.59;92.92;98139.36;273807;1269;22382;-87
2023/09/22 22:40:44;;;;;;;18.70;7.00;;;;;;;20.05;91.87;98153.20;273820;1270;22325;-85
2023/09/22 22:47:26;;;;;;;15.60;6.50;;;;;;;20.42;90.62;98167.28;270969;1269;24260;-83
2023/09/22 22:53:54;;;;;;;12.60;6.40;;;;;;;20.74;89.15;98172.51;272088;1269;22490;-87
2023/09/22 23:00:14;;;;;;;12.50;5.30;;;;;;;20.94;88.01;98161.18;270421;1269;22507;-86
2023/09/22 23:06:21;;;;;;;13.20;4.80;;;;;;;21.06;86.93;98169.33;270972;1263;25281;-87
2023/09/22 23:12:28;;;;;;;12.00;6.20;;;;;;;21.12;86.68;98176.21;272652;1269;23225;-87
2023/09/22 23:19:50;;;;;;;13.50;5.50;;;;;;;20.97;86.91;98183.45;272920;1269;22396;-88
2023/09/22 23:26:33;;;;;;;10.80;4.40;;;;;;;20.88;86.97;98188.05;273881;1273;22982;-87
2023/09/22 23:32:55;;;;;;;8.20;4.00;;;;;;;20.98;86.46;98193.67;273712;1269;23344;-86
2023/09/22 23:39:02;;;;;;;8.80;3.00;;;;;;;21.11;85.70;98187.04;273861;1269;22236;-88
2023/09/22 23:46:06;;;;;;;6.60;2.70;;;;;;;21.26;84.94;98203.39;273228;1269;22150;-86
2023/09/22 23:52:44;;;;;;;9.60;2.90;;;;;;;21.33;84.67;98219.98;273785;1269;23627;-85
2023/09/22 23:58:47;;;;;;;5.10;2.40;;;;;;;21.32;84.50;98226.69;272615;1269;947773;-87
